Time;durP1;ratioP1;P1;durP2;ratioP2;P2;SDS_P1;SDS_P2;PMS_P1;PMS_P2;Temp;Humidity;BMP_temperature;BMP_pressure;BME280_temperature;BME280_humidity;BME280_pressure;Samples;Min_cycle;Max_cycle;Signal;HPM_P1;HPM_P2
2023/01/10 00:00:23;;;;;;;25.02;5.72;;;;;;;16.07;64.89;100754.50;5009304;28;20480;-49
2023/01/10 00:02:50;;;;;;;27.05;7.43;;;;;;;15.95;65.87;100745.66;5026830;28;20082;-48
2023/01/10 00:05:17;;;;;;;26.55;7.10;;;;;;;16.08;65.45;100740.75;5025691;28;20041;-47
2023/01/10 00:07:44;;;;;;;24.77;6.70;;;;;;;15.96;65.61;100736.47;5031479;28;20518;-47
2023/01/10 00:10:12;;;;;;;23.98;6.50;;;;;;;15.95;65.00;100746.47;5034231;28;20159;-48
2023/01/10 00:15:23;;;;;;;27.58;6.20;;;;;;;15.79;65.17;100742.69;5035305;28;20128;-48
2023/01/10 00:17:49;;;;;;;30.45;6.53;;;;;;;15.81;65.07;100735.16;5027095;28;20033;-48
2023/01/10 00:20:16;;;;;;;28.13;7.25;;;;;;;15.58;64.81;100727.97;5014532;28;20555;-48
2023/01/10 00:22:44;;;;;;;31.52;6.68;;;;;;;15.70;65.79;100727.94;5031160;28;20068;-48
2023/01/10 00:25:11;;;;;;;35.60;6.65;;;;;;;15.78;66.07;100737.53;5033598;28;20504;-48
2023/01/10 00:27:38;;;;;;;30.48;6.55;;;;;;;15.77;66.07;100738.59;5016475;28;20447;-47
2023/01/10 00:30:14;;;;;;;40.90;7.85;;;;;;;15.78;66.31;100746.44;5033956;28;20136;-48
2023/01/10 00:32:44;;;;;;;26.58;6.20;;;;;;;15.55;67.55;100735.72;5034253;28;20029;-48
2023/01/10 00:35:11;;;;;;;28.65;7.40;;;;;;;15.54;67.82;100728.69;5034250;28;20022;-47
2023/01/10 00:37:39;;;;;;;33.67;7.30;;;;;;;15.58;66.77;100727.97;5033974;28;20104;-46
2023/01/10 00:40:10;;;;;;;38.97;7.55;;;;;;;15.65;66.93;100727.03;5021686;28;20030;-47
2023/01/10 00:45:23;;;;;;;31.92;7.00;;;;;;;15.58;68.48;100729.84;5021663;28;20036;-47
2023/01/10 00:47:51;;;;;;;28.55;7.93;;;;;;;15.27;69.51;100729.28;5022141;28;20072;-47
2023/01/10 00:50:17;;;;;;;25.27;6.65;;;;;;;15.23;69.75;100738.88;5033436;28;20471;-47
2023/01/10 00:52:43;;;;;;;29.13;6.05;;;;;;;15.20;69.58;100741.22;5031597;28;20080;-48
2023/01/10 00:55:10;;;;;;;23.00;6.40;;;;;;;15.19;70.01;100736.91;5017009;28;20112;-48
2023/01/10 00:57:36;;;;;;;26.58;6.20;;;;;;;15.14;70.30;100740.31;5015181;28;20030;-49
2023/01/10 01:00:06;;;;;;;30.65;7.07;;;;;;;15.11;70.69;100734.59;5032625;28;20112;-52
2023/01/10 01:02:32;;;;;;;33.10;7.00;;;;;;;15.07;70.71;100722.66;5032654;28;20041;-51
2023/01/10 01:04:59;;;;;;;24.15;7.32;;;;;;;14.95;71.16;100709.19;5020028;28;20045;-48
2023/01/10 01:07:28;;;;;;;30.50;6.85;;;;;;;14.96;70.97;100706.25;5017864;28;20108;-48
2023/01/10 01:12:38;;;;;;;24.85;7.25;;;;;;;14.88;71.16;100703.09;5033778;28;20103;-48
2023/01/10 01:15:05;;;;;;;28.05;7.20;;;;;;;14.90;71.51;100704.50;5033263;28;20052;-50
2023/01/10 01:17:31;;;;;;;33.10;7.85;;;;;;;14.74;72.00;100697.97;5031446;28;20444;-49
2023/01/10 01:19:58;;;;;;;33.88;7.75;;;;;;;14.73;72.05;100690.16;5033528;28;20029;-50
2023/01/10 01:22:24;;;;;;;33.58;6.57;;;;;;;14.75;72.16;100688.03;5032542;28;20064;-49
2023/01/10 01:24:50;;;;;;;31.00;7.60;;;;;;;14.65;72.21;100683.22;5032678;28;20033;-48
2023/01/10 01:27:16;;;;;;;33.78;8.02;;;;;;;14.71;71.73;100692.22;5030526;28;20051;-58
2023/01/10 01:29:43;;;;;;;30.23;8.07;;;;;;;14.62;72.16;100688.28;5018658;28;20141;-51
2023/01/10 01:32:09;;;;;;;25.45;7.05;;;;;;;14.52;72.24;100689.69;5026415;28;20398;-52
2023/01/10 01:34:35;;;;;;;29.52;6.97;;;;;;;14.44;72.60;100690.03;5031894;28;20372;-49
2023/01/10 01:37:01;;;;;;;28.60;6.85;;;;;;;14.29;72.81;100678.91;5033110;28;20034;-49
2023/01/10 01:39:28;;;;;;;28.60;6.70;;;;;;;14.19;73.34;100687.56;5025892;28;20060;-50
2023/01/10 01:41:57;;;;;;;36.42;15.68;;;;;;;14.07;73.50;100675.16;5013250;28;20599;-48
2023/01/10 01:44:30;;;;;;;43.88;16.50;;;;;;;13.94;74.54;100655.50;5021481;28;20030;-48
2023/01/10 01:47:11;;;;;;;31.55;12.63;;;;;;;13.90;74.64;100643.56;5013044;28;20033;-50
2023/01/10 01:49:42;;;;;;;24.77;7.63;;;;;;;13.87;74.50;100637.81;5016531;28;20040;-47
2023/01/10 01:52:18;;;;;;;24.08;7.88;;;;;;;13.84;74.63;100635.59;5032542;28;20036;-50
2023/01/10 01:54:44;;;;;;;30.08;9.50;;;;;;;13.77;74.58;100638.41;5033307;28;20018;-48
2023/01/10 01:57:16;;;;;;;23.20;6.72;;;;;;;13.71;74.63;100637.44;5033420;28;20067;-49
2023/01/10 01:59:49;;;;;;;24.13;6.85;;;;;;;13.61;75.03;100622.94;5032942;28;20116;-47
2023/01/10 02:02:29;;;;;;;22.27;6.68;;;;;;;13.54;75.03;100619.50;5033024;28;20625;-48
2023/01/10 02:04:58;;;;;;;19.17;6.57;;;;;;;13.47;74.87;100616.94;5033252;28;20108;-49
2023/01/10 02:07:28;;;;;;;41.65;12.00;;;;;;;13.34;75.20;100623.34;5031907;28;20040;-47
2023/01/10 02:10:00;;;;;;;31.65;10.48;;;;;;;13.35;74.80;100638.41;5032197;28;20163;-50
2023/01/10 02:12:28;;;;;;;22.10;9.65;;;;;;;13.27;75.18;100632.53;5032531;28;20037;-47
2023/01/10 02:14:56;;;;;;;34.05;10.80;;;;;;;13.12;75.81;100619.50;5032286;28;20029;-49
2023/01/10 02:17:22;;;;;;;41.90;11.13;;;;;;;13.26;74.82;100620.13;5032465;28;20017;-48
2023/01/10 02:20:02;;;;;;;29.35;9.43;;;;;;;13.08;75.06;100627.19;5032164;28;20034;-48
2023/01/10 02:23:05;;;;;;;29.17;9.70;;;;;;;12.74;76.50;100611.72;5031965;28;20029;-50
2023/01/10 02:25:53;;;;;;;42.35;9.60;;;;;;;12.33;78.12;100622.09;5031535;28;20064;-49
2023/01/10 02:28:48;;;;;;;36.65;8.15;;;;;;;11.89;80.55;100626.66;5031668;28;20033;-47
2023/01/10 02:31:32;;;;;;;32.80;7.63;;;;;;;11.75;81.40;100632.31;5028283;28;20514;-55
2023/01/10 02:34:20;;;;;;;25.73;7.78;;;;;;;11.79;81.15;100615.56;5031863;28;20029;-48
2023/01/10 02:36:46;;;;;;;37.08;10.85;;;;;;;12.13;79.48;100616.94;5031939;28;20029;-47
2023/01/10 02:39:23;;;;;;;29.58;10.88;;;;;;;12.20;78.69;100614.16;5024679;28;20116;-48
2023/01/10 02:42:07;;;;;;;34.40;9.10;;;;;;;11.30;82.63;100611.81;5029990;28;20056;-47
2023/01/10 02:44:52;;;;;;;32.10;8.73;;;;;;;11.19;84.19;100609.00;5031143;28;20041;-49
2023/01/10 02:47:18;;;;;;;38.78;8.85;;;;;;;11.03;84.77;100596.94;5028700;28;20345;-49
2023/01/10 02:49:47;;;;;;;34.42;8.13;;;;;;;10.73;87.05;100589.47;5031771;28;20140;-47
2023/01/10 02:52:29;;;;;;;44.05;9.40;;;;;;;10.57;87.98;100579.25;5031719;28;20033;-46
2023/01/10 02:55:00;;;;;;;35.45;8.32;;;;;;;10.38;89.79;100585.47;5031641;28;20029;-48
2023/01/10 02:57:36;;;;;;;31.75;8.32;;;;;;;10.50;89.10;100581.94;5021777;28;20022;-47
2023/01/10 03:00:21;;;;;;;24.83;8.15;;;;;;;10.90;87.22;100572.91;5030915;28;20049;-48
2023/01/10 03:03:12;;;;;;;35.08;8.77;;;;;;;10.71;86.82;100582.66;5031891;28;20087;-47
2023/01/10 03:06:22;;;;;;;37.95;8.50;;;;;;;10.93;85.62;100584.00;5030996;28;20025;-50
2023/01/10 03:09:06;;;;;;;38.17;9.00;;;;;;;10.04;89.47;100585.53;5030518;28;20040;-47
2023/01/10 03:11:39;;;;;;;48.33;10.05;;;;;;;9.67;92.50;100586.19;5031444;28;20391;-50
2023/01/10 03:16:40;;;;;;;35.45;8.85;;;;;;;9.61;93.36;100597.72;5037405;28;20045;-47
2023/01/10 03:19:13;;;;;;;31.90;8.82;;;;;;;9.62;93.50;100600.19;5051461;28;20542;-48
2023/01/10 03:21:42;;;;;;;38.35;10.30;;;;;;;9.45;94.38;100596.25;5051323;28;20025;-48
2023/01/10 03:24:17;;;;;;;51.22;10.23;;;;;;;9.53;94.04;100590.72;5051585;28;20389;-47
2023/01/10 03:27:13;;;;;;;47.03;10.25;;;;;;;9.39;94.32;100581.88;5051610;28;20471;-48
2023/01/10 03:29:56;;;;;;;34.92;9.60;;;;;;;9.40;94.55;100562.16;5050339;28;20328;-47
2023/01/10 03:32:27;;;;;;;45.10;9.75;;;;;;;9.29;94.90;100561.94;5044308;28;20037;-47
2023/01/10 03:34:54;;;;;;;31.02;8.82;;;;;;;9.33;94.56;100557.81;5032778;28;20018;-47
2023/01/10 03:37:54;;;;;;;41.90;9.10;;;;;;;9.31;94.41;100551.88;5045787;28;20067;-49
2023/01/10 03:40:45;;;;;;;31.10;8.23;;;;;;;9.40;93.73;100540.78;5051566;28;20107;-48
2023/01/10 03:46:35;;;;;;;39.60;9.23;;;;;;;9.36;92.57;100533.38;5053941;28;20039;-48
2023/01/10 03:49:05;;;;;;;30.95;7.93;;;;;;;9.33;92.52;100517.75;5034910;28;20488;-47
2023/01/10 03:51:32;;;;;;;27.02;7.68;;;;;;;9.21;92.63;100521.03;5049039;28;20061;-48
2023/01/10 03:54:01;;;;;;;27.65;7.00;;;;;;;9.32;92.32;100526.78;5053690;28;20037;-48
2023/01/10 03:56:27;;;;;;;28.67;7.32;;;;;;;9.19;91.11;100523.09;5050016;28;20036;-48
2023/01/10 03:58:54;;;;;;;29.42;7.30;;;;;;;9.19;90.92;100523.09;5034802;28;20033;-46
2023/01/10 04:01:20;;;;;;;35.97;7.07;;;;;;;9.11;90.90;100525.16;5039371;28;20088;-46
2023/01/10 04:03:46;;;;;;;40.83;7.80;;;;;;;9.05;90.93;100523.28;5035133;28;20040;-47
2023/01/10 04:06:12;;;;;;;27.40;8.95;;;;;;;8.98;91.02;100515.25;5033772;28;20069;-47
2023/01/10 04:08:39;;;;;;;30.60;7.47;;;;;;;9.17;90.47;100514.47;5018769;28;20029;-46
2023/01/10 04:11:05;;;;;;;20.80;7.50;;;;;;;9.40;89.60;100508.72;5002096;28;20033;-49
2023/01/10 04:13:31;;;;;;;30.00;6.97;;;;;;;9.51;88.67;100509.94;5033479;28;20079;-46
2023/01/10 04:15:59;;;;;;;17.52;6.22;;;;;;;9.37;88.10;100516.31;5029223;28;20042;-46
2023/01/10 04:18:26;;;;;;;30.08;7.03;;;;;;;9.26;88.58;100518.56;5014588;28;20026;-48
2023/01/10 04:20:52;;;;;;;25.55;6.68;;;;;;;9.65;86.81;100516.91;5017405;28;20021;-47
2023/01/10 04:23:18;;;;;;;27.20;6.38;;;;;;;9.49;86.32;100544.91;5034718;28;20021;-47
2023/01/10 04:25:47;;;;;;;17.95;5.55;;;;;;;9.67;85.13;100552.28;5032452;28;20025;-48
2023/01/10 04:28:13;;;;;;;21.20;5.95;;;;;;;9.78;84.21;100570.38;5034313;28;20060;-47
2023/01/10 04:30:39;;;;;;;13.18;4.18;;;;;;;9.71;84.49;100582.88;5032095;28;20084;-47
2023/01/10 04:33:06;;;;;;;17.17;4.82;;;;;;;9.69;84.61;100586.81;5032764;28;20522;-50
2023/01/10 04:35:32;;;;;;;17.85;4.68;;;;;;;9.75;84.07;100581.44;5033525;28;20433;-47
2023/01/10 04:37:59;;;;;;;22.25;5.93;;;;;;;9.73;83.82;100585.38;5033932;28;20494;-47
2023/01/10 04:40:25;;;;;;;22.05;5.40;;;;;;;9.72;83.92;100589.09;5026050;28;20470;-48
2023/01/10 04:42:52;;;;;;;21.45;5.75;;;;;;;9.45;84.76;100589.06;5029460;28;20033;-48
2023/01/10 04:45:19;;;;;;;14.82;5.05;;;;;;;9.54;84.20;100578.97;5034139;28;20497;-48
2023/01/10 04:47:51;;;;;;;30.95;6.40;;;;;;;9.14;85.72;100576.28;5033296;28;20037;-48
2023/01/10 04:50:18;;;;;;;16.05;6.00;;;;;;;9.20;85.62;100570.13;5030934;28;20036;-51
2023/01/10 04:52:44;;;;;;;19.25;5.88;;;;;;;8.86;86.95;100554.25;5033018;28;20406;-47
2023/01/10 04:55:10;;;;;;;27.55;5.65;;;;;;;8.39;90.04;100540.78;5034413;28;20033;-46
2023/01/10 04:57:36;;;;;;;23.10;6.45;;;;;;;8.43;90.48;100528.66;5032924;28;20025;-47
2023/01/10 05:00:03;;;;;;;32.40;6.00;;;;;;;8.36;90.83;100535.00;5013347;28;20034;-49
2023/01/10 05:02:29;;;;;;;20.25;5.57;;;;;;;8.32;91.12;100549.72;5026371;28;20025;-48
2023/01/10 05:04:56;;;;;;;27.92;5.30;;;;;;;8.40;90.96;100557.59;5033658;28;20472;-48
2023/01/10 05:07:22;;;;;;;18.35;5.18;;;;;;;8.47;90.13;100553.09;5031594;28;20076;-49
2023/01/10 05:09:48;;;;;;;23.08;5.43;;;;;;;8.35;91.06;100550.16;5038090;23;20452;-47
2023/01/10 05:12:14;;;;;;;15.82;4.88;;;;;;;8.42;90.25;100556.38;5032847;28;20484;-49
2023/01/10 05:14:41;;;;;;;13.15;4.53;;;;;;;8.28;91.48;100559.16;5033351;28;20028;-50
2023/01/10 05:17:07;;;;;;;25.58;5.75;;;;;;;8.23;91.59;100553.59;5020983;28;20518;-48
2023/01/10 05:19:33;;;;;;;18.58;5.97;;;;;;;8.12;91.86;100557.63;5022698;28;20396;-47
2023/01/10 05:21:59;;;;;;;16.83;4.63;;;;;;;8.23;91.85;100548.25;5025887;28;20514;-47
2023/01/10 05:24:26;;;;;;;23.27;6.30;;;;;;;8.13;92.03;100559.28;5016722;28;20056;-48
2023/01/10 05:26:52;;;;;;;19.92;6.30;;;;;;;8.27;91.39;100568.16;5024542;28;20107;-49
2023/01/10 05:29:18;;;;;;;20.55;6.18;;;;;;;8.19;91.60;100574.47;5033142;28;20026;-47
2023/01/10 05:31:44;;;;;;;13.25;3.78;;;;;;;8.38;91.13;100572.94;5028339;28;20025;-50
2023/01/10 05:34:12;;;;;;;18.35;5.65;;;;;;;8.51;89.84;100569.53;5019371;28;20033;-47
2023/01/10 05:36:38;;;;;;;33.38;6.32;;;;;;;8.33;90.12;100565.53;5020733;28;20029;-47
2023/01/10 05:39:05;;;;;;;26.73;6.10;;;;;;;8.03;92.15;100572.94;5033039;28;20052;-48
2023/01/10 05:41:31;;;;;;;25.88;5.80;;;;;;;7.94;92.62;100577.63;5030895;28;20053;-48
2023/01/10 05:43:57;;;;;;;18.88;4.72;;;;;;;8.29;91.66;100574.13;5032327;28;20061;-47
2023/01/10 05:46:23;;;;;;;25.15;5.35;;;;;;;8.42;89.86;100568.88;5031638;28;20460;-48
2023/01/10 05:48:51;;;;;;;14.45;3.92;;;;;;;8.43;89.68;100574.00;5031761;28;20399;-49
2023/01/10 05:51:18;;;;;;;17.70;5.18;;;;;;;8.51;89.27;100588.22;5029906;28;20037;-48
2023/01/10 05:53:44;;;;;;;18.85;5.03;;;;;;;8.54;88.88;100583.28;5031565;28;20101;-50
2023/01/10 05:56:10;;;;;;;21.15;4.95;;;;;;;8.48;88.84;100581.41;5032409;28;20447;-49
2023/01/10 05:58:36;;;;;;;12.27;4.13;;;;;;;8.57;88.74;100582.91;5032313;28;20025;-49
2023/01/10 06:01:03;;;;;;;14.05;4.57;;;;;;;8.62;88.06;100575.13;5032557;28;20113;-49
2023/01/10 06:03:29;;;;;;;18.15;4.32;;;;;;;8.68;87.86;100560.97;5020271;28;20022;-50
2023/01/10 06:05:56;;;;;;;18.48;5.28;;;;;;;8.53;88.16;100570.97;5011803;28;20084;-51
2023/01/10 06:08:23;;;;;;;16.63;5.07;;;;;;;8.64;87.44;100573.06;5011997;28;20025;-51
2023/01/10 06:10:51;;;;;;;14.70;4.75;;;;;;;8.33;89.35;100556.69;4997332;28;20050;-51
2023/01/10 06:13:17;;;;;;;19.90;4.35;;;;;;;8.36;88.94;100554.50;4996628;28;20387;-47
2023/01/10 06:15:44;;;;;;;23.67;5.03;;;;;;;8.55;88.08;100554.75;5012666;28;20033;-51
2023/01/10 06:18:10;;;;;;;10.23;4.28;;;;;;;8.60;87.23;100565.66;5011531;28;20038;-49
2023/01/10 06:20:36;;;;;;;17.08;3.88;;;;;;;8.66;86.88;100571.03;5012265;28;20375;-49
2023/01/10 06:23:03;;;;;;;14.20;4.38;;;;;;;8.73;86.70;100550.53;5007811;28;20563;-51
2023/01/10 06:25:35;;;;;;;12.70;4.38;;;;;;;8.88;85.70;100536.19;5012642;28;20093;-51
2023/01/10 06:28:03;;;;;;;19.88;4.93;;;;;;;9.21;84.35;100530.91;5011549;28;20026;-50
2023/01/10 06:30:29;;;;;;;18.55;5.93;;;;;;;9.13;84.58;100521.25;5011093;28;20431;-48
2023/01/10 06:33:03;;;;;;;14.80;4.45;;;;;;;9.01;85.31;100524.72;5007932;28;20084;-51
2023/01/10 06:35:30;;;;;;;15.77;4.40;;;;;;;9.01;85.01;100536.22;5012516;28;20029;-51
2023/01/10 06:37:57;;;;;;;19.27;6.65;;;;;;;8.84;85.62;100530.44;4979128;28;20121;-48
2023/01/10 06:40:24;;;;;;;17.75;6.40;;;;;;;8.75;86.15;100517.47;5004878;28;20478;-48
2023/01/10 06:42:51;;;;;;;17.40;6.00;;;;;;;8.80;85.90;100513.19;5011291;28;20049;-50
2023/01/10 06:45:17;;;;;;;15.45;5.82;;;;;;;8.69;86.12;100509.25;5011154;28;20109;-51
2023/01/10 06:47:44;;;;;;;19.38;5.65;;;;;;;8.94;85.46;100485.50;5012189;28;20022;-48
2023/01/10 06:50:12;;;;;;;20.67;6.13;;;;;;;8.87;86.31;100481.16;5010762;28;20125;-49
2023/01/10 06:52:39;;;;;;;20.08;6.07;;;;;;;8.89;86.51;100477.28;5006990;28;20064;-50
2023/01/10 06:55:06;;;;;;;25.42;5.57;;;;;;;8.87;87.05;100475.81;5010994;28;20072;-47
2023/01/10 06:57:37;;;;;;;12.07;4.50;;;;;;;9.04;86.99;100477.06;5011720;28;20033;-48
2023/01/10 07:00:05;;;;;;;13.35;4.22;;;;;;;9.05;87.23;100457.38;5011073;28;20042;-48
2023/01/10 07:02:32;;;;;;;22.35;5.07;;;;;;;9.20;88.23;100441.94;5007987;28;20021;-50
2023/01/10 07:04:58;;;;;;;22.75;5.07;;;;;;;9.32;89.03;100433.31;5011530;28;20036;-48
2023/01/10 07:07:24;;;;;;;16.60;5.50;;;;;;;9.52;89.48;100426.09;5011838;28;20022;-47
2023/01/10 07:09:50;;;;;;;23.38;5.30;;;;;;;9.56;90.61;100434.53;5005984;28;20073;-46
2023/01/10 07:12:16;;;;;;;23.63;5.25;;;;;;;9.61;92.48;100427.53;5011049;28;20472;-48
2023/01/10 07:14:43;;;;;;;21.67;4.30;;;;;;;9.62;93.66;100423.81;5010904;28;20468;-48
2023/01/10 07:17:09;;;;;;;25.02;5.57;;;;;;;9.71;94.83;100430.53;5006432;28;20115;-48
2023/01/10 07:19:35;;;;;;;16.77;5.68;;;;;;;9.88;94.95;100427.41;5011529;28;20065;-48
2023/01/10 07:22:02;;;;;;;25.10;6.20;;;;;;;10.01;94.54;100424.72;5011486;28;20487;-48
2023/01/10 07:24:28;;;;;;;26.00;6.10;;;;;;;10.04;94.25;100416.25;4992127;28;20094;-48
2023/01/10 07:26:55;;;;;;;23.90;5.68;;;;;;;10.14;93.76;100413.94;4991955;28;20033;-47
2023/01/10 07:29:21;;;;;;;28.10;5.80;;;;;;;10.26;92.78;100398.88;4993073;28;20054;-46
2023/01/10 07:31:47;;;;;;;31.00;6.07;;;;;;;10.29;91.59;100382.41;5011631;28;20026;-48
2023/01/10 07:34:14;;;;;;;19.35;4.60;;;;;;;10.35;91.09;100377.25;5011496;28;20057;-48
2023/01/10 07:36:40;;;;;;;22.90;5.22;;;;;;;10.34;91.27;100373.75;5011270;28;20036;-47
2023/01/10 07:39:06;;;;;;;22.80;4.95;;;;;;;10.45;90.95;100374.91;5011598;28;20053;-49
2023/01/10 07:41:33;;;;;;;19.20;4.65;;;;;;;10.65;90.73;100367.53;5011500;28;20380;-47
2023/01/10 07:43:59;;;;;;;13.70;4.10;;;;;;;10.68;90.28;100367.13;5011607;28;20061;-47
2023/01/10 07:46:25;;;;;;;14.07;3.72;;;;;;;10.80;90.10;100361.88;5011756;28;20515;-47
2023/01/10 07:48:51;;;;;;;11.25;3.95;;;;;;;10.84;89.89;100358.53;5010525;28;20538;-48
2023/01/10 07:51:18;;;;;;;14.70;3.67;;;;;;;10.89;89.69;100368.59;5011264;28;20057;-47
2023/01/10 07:53:44;;;;;;;20.13;4.30;;;;;;;10.99;89.02;100370.75;5011314;28;20018;-47
2023/01/10 07:56:10;;;;;;;10.93;2.85;;;;;;;11.07;88.82;100382.00;5011464;28;20021;-50
2023/01/10 07:58:36;;;;;;;10.90;3.75;;;;;;;11.09;88.39;100371.06;5010847;28;20022;-48
2023/01/10 08:01:04;;;;;;;16.33;4.25;;;;;;;11.10;87.91;100364.66;5011372;28;20076;-48
2023/01/10 08:03:31;;;;;;;17.88;4.35;;;;;;;11.19;87.63;100339.25;5010987;28;20038;-50
2023/01/10 08:06:05;;;;;;;11.00;3.53;;;;;;;11.28;87.65;100345.97;5011299;28;20034;-47
2023/01/10 08:08:33;;;;;;;9.43;3.63;;;;;;;11.28;87.35;100340.59;5010790;28;20068;-48
2023/01/10 08:11:01;;;;;;;12.00;3.58;;;;;;;11.52;86.57;100338.06;5010408;28;20050;-47
2023/01/10 08:13:29;;;;;;;10.43;3.33;;;;;;;11.52;86.20;100328.16;5010515;28;20026;-47
2023/01/10 08:15:55;;;;;;;11.43;3.17;;;;;;;11.53;86.47;100328.97;5010893;28;20034;-47
2023/01/10 08:18:23;;;;;;;11.32;3.22;;;;;;;11.49;86.79;100335.81;5011033;28;20109;-51
2023/01/10 08:20:51;;;;;;;15.63;4.38;;;;;;;11.50;87.03;100321.41;5010942;28;20041;-46
2023/01/10 08:23:18;;;;;;;9.43;3.00;;;;;;;11.58;87.12;100310.34;5010692;28;20061;-46
2023/01/10 08:25:45;;;;;;;13.90;3.55;;;;;;;11.57;87.11;100306.03;5011120;28;20037;-46
2023/01/10 08:28:12;;;;;;;11.90;3.20;;;;;;;11.61;87.00;100312.59;5014769;28;20029;-49
2023/01/10 08:30:39;;;;;;;12.88;3.05;;;;;;;11.69;86.68;100309.59;5014604;28;20391;-48
2023/01/10 08:33:07;;;;;;;10.13;3.00;;;;;;;11.71;86.85;100299.44;5014630;28;20438;-50
2023/01/10 08:35:37;;;;;;;9.07;3.08;;;;;;;11.72;87.03;100290.38;5014275;28;20026;-47
2023/01/10 08:38:04;;;;;;;19.63;3.97;;;;;;;11.56;87.92;100277.63;5010175;28;20015;-46
2023/01/10 08:40:31;;;;;;;16.95;4.13;;;;;;;11.54;87.83;100264.41;5032955;23;20059;-46
2023/01/10 08:43:02;;;;;;;11.75;3.80;;;;;;;11.63;86.98;100248.84;5053974;28;20040;-46
2023/01/10 08:45:28;;;;;;;12.77;3.72;;;;;;;11.57;86.48;100228.31;5053506;28;20475;-45
2023/01/10 08:47:55;;;;;;;17.15;4.32;;;;;;;11.63;85.73;100230.09;5053676;28;20108;-48
2023/01/10 08:50:22;;;;;;;13.68;4.05;;;;;;;11.57;85.53;100214.91;5053493;28;20061;-47
2023/01/10 08:52:50;;;;;;;12.30;3.60;;;;;;;11.68;85.12;100206.09;5052676;28;20048;-45
2023/01/10 08:55:17;;;;;;;16.00;3.45;;;;;;;11.68;84.87;100184.66;5052673;28;20021;-46
2023/01/10 08:57:43;;;;;;;12.55;3.25;;;;;;;11.55;85.83;100174.13;5050157;28;20029;-46
2023/01/10 09:00:11;;;;;;;16.50;3.60;;;;;;;11.78;85.23;100163.47;5048099;28;20029;-48
2023/01/10 09:02:39;;;;;;;8.82;2.05;;;;;;;11.69;86.83;100164.81;5033416;28;20029;-46
2023/01/10 09:05:06;;;;;;;4.57;1.83;;;;;;;11.85;87.73;100171.44;5032637;28;20037;-50
2023/01/10 09:07:32;;;;;;;3.00;0.90;;;;;;;11.94;88.60;100187.97;5033604;28;20021;-47
2023/01/10 09:09:58;;;;;;;4.85;0.90;;;;;;;11.99;89.19;100172.81;5031796;28;20021;-47
2023/01/10 09:15:09;;;;;;;3.15;0.73;;;;;;;12.19;88.81;100169.81;5033571;28;20689;-46
2023/01/10 09:17:36;;;;;;;4.25;1.00;;;;;;;12.32;87.62;100150.81;5031420;28;20053;-49
2023/01/10 09:20:08;;;;;;;4.72;1.15;;;;;;;12.38;87.32;100128.41;5032964;28;20033;-46
2023/01/10 09:22:38;;;;;;;3.28;1.20;;;;;;;12.43;87.08;100115.09;5032121;28;20030;-48
2023/01/10 09:25:05;;;;;;;3.53;1.02;;;;;;;12.49;86.71;100099.91;5033676;28;20431;-46
2023/01/10 09:27:32;;;;;;;3.03;0.88;;;;;;;12.63;86.08;100087.84;5032577;28;20032;-46
2023/01/10 09:29:58;;;;;;;5.07;0.80;;;;;;;12.62;85.71;100072.81;5032828;28;20064;-49
2023/01/10 09:32:25;;;;;;;1.52;0.60;;;;;;;12.73;85.59;100044.28;5033308;28;20502;-46
2023/01/10 09:34:51;;;;;;;1.85;0.65;;;;;;;12.86;84.92;100041.31;5032145;28;20036;-49
2023/01/10 09:37:18;;;;;;;3.60;0.90;;;;;;;12.86;86.05;100013.63;5033324;28;20034;-48
2023/01/10 09:39:44;;;;;;;7.70;1.00;;;;;;;12.82;86.81;99991.00;5029177;28;20033;-46
2023/01/10 09:42:29;;;;;;;3.47;0.95;;;;;;;12.87;87.14;99977.66;5032611;28;20054;-46
2023/01/10 09:45:12;;;;;;;4.75;0.70;;;;;;;12.93;87.18;99977.50;5030885;28;20022;-46
2023/01/10 09:47:43;;;;;;;3.25;0.80;;;;;;;12.94;87.36;99994.47;5032827;28;20033;-47
2023/01/10 09:50:26;;;;;;;5.07;1.13;;;;;;;12.95;87.69;100004.94;5031390;28;20056;-46
2023/01/10 09:53:02;;;;;;;4.68;1.10;;;;;;;12.81;88.97;100005.50;5031690;28;20029;-46
2023/01/10 09:55:37;;;;;;;7.40;1.35;;;;;;;12.72;90.81;100029.25;5030821;28;20090;-48
2023/01/10 09:58:09;;;;;;;6.40;1.30;;;;;;;12.80;91.76;100022.66;5031543;28;20025;-46
2023/01/10 10:00:43;;;;;;;5.32;1.30;;;;;;;12.79;93.05;100035.28;5032236;28;20029;-50
2023/01/10 10:03:27;;;;;;;4.88;1.08;;;;;;;12.85;93.20;100023.56;5030500;28;20076;-46
2023/01/10 10:05:53;;;;;;;5.55;1.25;;;;;;;12.75;93.37;100031.44;5030945;28;20124;-46
2023/01/10 10:08:20;;;;;;;5.60;1.02;;;;;;;12.73;93.69;100052.34;5030768;28;20029;-46
2023/01/10 10:10:54;;;;;;;5.38;1.30;;;;;;;12.74;94.65;100061.22;5032108;28;20061;-49
2023/01/10 10:13:31;;;;;;;12.20;2.28;;;;;;;12.75;95.37;100232.00;5031243;28;20060;-46
2023/01/10 10:16:24;;;;;;;8.02;2.03;;;;;;;11.83;86.64;100225.28;5030758;28;20095;-46
2023/01/10 10:19:13;;;;;;;9.82;2.03;;;;;;;11.23;84.65;100171.69;5028567;28;20108;-46
2023/01/10 10:22:03;;;;;;;15.45;3.45;;;;;;;10.61;84.64;100141.56;5032552;28;20131;-46
2023/01/10 10:24:44;;;;;;;8.52;2.35;;;;;;;10.31;83.89;100125.41;5031416;28;20116;-47
2023/01/10 10:27:23;;;;;;;24.60;3.72;;;;;;;10.17;83.96;100113.19;5032840;28;20382;-47
2023/01/10 10:30:29;;;;;;;9.10;2.05;;;;;;;10.34;84.04;100108.09;5031851;28;20116;-46
2023/01/10 10:33:00;;;;;;;10.43;2.05;;;;;;;10.46;89.06;100114.34;5028537;28;20037;-45
2023/01/10 10:35:34;;;;;;;11.43;1.63;;;;;;;10.77;90.30;100099.94;5031422;28;20025;-46
2023/01/10 10:38:09;;;;;;;10.33;1.83;;;;;;;10.91;89.41;100068.50;5030722;28;20029;-47
2023/01/10 10:40:39;;;;;;;3.03;1.00;;;;;;;10.95;86.73;100067.00;5017377;28;20055;-46
2023/01/10 10:43:26;;;;;;;5.43;1.40;;;;;;;11.09;85.24;100116.63;5029828;28;20260;-46
2023/01/10 10:46:04;;;;;;;8.02;1.40;;;;;;;11.15;83.43;100112.22;5031256;28;20017;-48
2023/01/10 10:48:41;;;;;;;3.13;1.13;;;;;;;11.27;82.39;100135.38;5026912;28;20033;-46
2023/01/10 10:51:33;;;;;;;12.05;1.50;;;;;;;11.27;83.49;100130.00;5030346;28;20037;-49
2023/01/10 10:54:00;;;;;;;4.43;1.20;;;;;;;11.32;82.71;100089.91;5031099;28;20095;-49
2023/01/10 10:56:27;;;;;;;6.50;1.30;;;;;;;11.37;81.06;100092.72;5029952;28;20060;-46
2023/01/10 10:58:56;;;;;;;7.13;1.75;;;;;;;11.44;79.72;100097.16;5031075;28;20033;-48
2023/01/10 11:01:23;;;;;;;11.05;2.03;;;;;;;11.43;80.35;100096.34;5029375;28;20037;-46
2023/01/10 11:03:59;;;;;;;7.80;2.10;;;;;;;11.54;79.88;100118.88;5027747;28;20039;-46
2023/01/10 11:06:29;;;;;;;7.47;1.70;;;;;;;11.50;79.97;100112.34;5030985;28;20076;-47
2023/01/10 11:09:00;;;;;;;7.88;1.55;;;;;;;11.56;79.63;100112.25;5029559;28;20471;-45
2023/01/10 11:11:45;;;;;;;8.80;1.95;;;;;;;11.59;80.46;100143.13;5030788;28;20360;-48
2023/01/10 11:14:12;;;;;;;11.95;2.28;;;;;;;11.56;80.84;100138.25;5029177;28;20044;-49
2023/01/10 11:16:46;;;;;;;10.60;2.13;;;;;;;11.63;79.86;100121.00;5030998;28;20484;-49
2023/01/10 11:19:26;;;;;;;9.73;2.38;;;;;;;11.56;80.83;100114.94;5029439;28;20569;-48
2023/01/10 11:21:58;;;;;;;12.07;3.00;;;;;;;11.60;79.94;100117.94;5028841;28;20590;-48
2023/01/10 11:24:27;;;;;;;11.25;2.75;;;;;;;11.59;80.41;100119.81;5017622;28;20033;-48
2023/01/10 11:26:54;;;;;;;12.02;2.78;;;;;;;11.71;79.29;100113.66;5029484;28;20045;-49
2023/01/10 11:29:42;;;;;;;12.95;2.72;;;;;;;11.80;77.76;100102.38;5036005;23;20056;-47
2023/01/10 11:32:14;;;;;;;14.85;2.80;;;;;;;11.82;78.85;100111.00;5029676;28;20072;-47
2023/01/10 11:34:47;;;;;;;11.18;2.83;;;;;;;11.75;78.80;100104.94;5027982;28;20028;-47
2023/01/10 11:37:17;;;;;;;12.80;2.67;;;;;;;11.80;77.11;100097.00;5028654;28;20037;-49
2023/01/10 11:39:44;;;;;;;16.48;3.55;;;;;;;11.79;78.23;100097.25;5029529;28;20033;-47
2023/01/10 11:42:31;;;;;;;20.92;3.08;;;;;;;11.79;78.39;100089.19;5030529;28;20078;-45
2023/01/10 11:45:16;;;;;;;16.77;2.60;;;;;;;11.79;78.38;100091.88;5028407;28;20037;-46
2023/01/10 11:48:03;;;;;;;18.67;3.22;;;;;;;11.64;79.28;100089.66;5028263;28;20140;-47
2023/01/10 11:50:35;;;;;;;6.90;2.50;;;;;;;11.72;79.70;100092.00;5029705;28;20036;-45
2023/01/10 11:53:04;;;;;;;15.05;3.97;;;;;;;11.68;80.11;100088.13;5030479;28;20033;-46